createdAt,value
2022-09-13T00:01:09.460Z,62.00
2022-09-13T00:03:37.910Z,62.00
2022-09-13T00:06:12.387Z,62.00
2022-09-13T00:08:41.445Z,62.00
2022-09-13T00:11:15.679Z,62.00
2022-09-13T00:13:44.124Z,62.00
2022-09-13T00:16:13.861Z,61.90
2022-09-13T00:18:42.690Z,61.90
2022-09-13T00:21:15.249Z,61.90
2022-09-13T00:23:45.800Z,61.90
2022-09-13T00:26:15.236Z,61.90
2022-09-13T00:28:45.491Z,61.90
2022-09-13T00:31:14.000Z,61.90
2022-09-13T00:33:42.154Z,61.90
2022-09-13T00:36:13.656Z,61.80
2022-09-13T00:38:42.513Z,61.80
2022-09-13T00:41:14.731Z,61.80
2022-09-13T00:43:47.109Z,61.80
2022-09-13T00:46:21.137Z,61.80
2022-09-13T00:48:51.084Z,61.80
2022-09-13T00:51:20.562Z,61.80
2022-09-13T00:53:52.473Z,61.70
2022-09-13T00:56:23.740Z,61.70
2022-09-13T00:58:55.281Z,61.70
2022-09-13T01:01:30.206Z,61.70
2022-09-13T01:03:58.392Z,61.70
2022-09-13T01:06:33.037Z,61.70
2022-09-13T01:09:04.255Z,61.60
2022-09-13T01:11:40.462Z,61.70
2022-09-13T01:14:09.820Z,61.70
2022-09-13T01:16:37.987Z,61.60
2022-09-13T01:19:06.225Z,61.80
2022-09-13T01:22:32.436Z,61.60
2022-09-13T01:25:42.909Z,61.60
2022-09-13T01:28:54.311Z,61.50
2022-09-13T01:31:29.901Z,61.60
2022-09-13T01:34:15.109Z,61.50
2022-09-13T01:37:04.233Z,61.50
2022-09-13T01:39:48.758Z,61.50
2022-09-13T01:42:22.937Z,61.50
2022-09-13T01:45:04.881Z,61.50
2022-09-13T01:47:38.348Z,61.50
2022-09-13T01:50:16.283Z,61.50
2022-09-13T01:52:51.521Z,61.50
2022-09-13T01:55:30.410Z,61.50
2022-09-13T01:58:10.070Z,61.50
2022-09-13T02:00:45.819Z,61.50
2022-09-13T02:03:19.439Z,61.50
2022-09-13T02:05:52.855Z,61.50
2022-09-13T02:08:27.418Z,61.50
2022-09-13T02:11:04.607Z,61.50
2022-09-13T02:13:37.368Z,61.50
2022-09-13T02:16:14.149Z,61.40
2022-09-13T02:18:48.054Z,61.40
2022-09-13T02:21:21.117Z,61.40
2022-09-13T02:23:53.481Z,61.40
2022-09-13T02:26:23.774Z,61.40
2022-09-13T02:28:54.102Z,61.40
2022-09-13T02:31:29.589Z,61.40
2022-09-13T02:34:04.606Z,61.40
2022-09-13T02:36:37.147Z,61.40
2022-09-13T02:39:10.262Z,61.30
2022-09-13T02:41:44.243Z,61.30
2022-09-13T02:44:16.828Z,61.30
2022-09-13T02:47:01.200Z,61.30
2022-09-13T02:49:35.307Z,61.30
2022-09-13T02:52:12.166Z,61.30
2022-09-13T02:54:43.827Z,61.30
2022-09-13T02:57:16.313Z,61.30
2022-09-13T02:59:44.405Z,61.30
2022-09-13T03:02:15.890Z,61.20
2022-09-13T03:04:45.478Z,61.30
2022-09-13T03:07:15.145Z,61.20
2022-09-13T03:09:48.108Z,61.20
2022-09-13T03:12:37.358Z,61.20
2022-09-13T03:15:16.680Z,61.20
2022-09-13T03:17:55.924Z,61.20
2022-09-13T03:20:37.252Z,61.20
2022-09-13T03:23:26.123Z,61.20
2022-09-13T03:26:29.011Z,61.20
2022-09-13T03:29:21.157Z,61.20
2022-09-13T03:31:55.282Z,61.20
2022-09-13T03:34:32.278Z,61.20
2022-09-13T03:37:08.360Z,61.20
2022-09-13T03:39:43.086Z,61.10
2022-09-13T03:42:17.782Z,61.20
2022-09-13T03:44:48.749Z,61.20
2022-09-13T03:47:19.154Z,61.10
2022-09-13T03:49:47.526Z,61.10
2022-09-13T03:52:17.387Z,61.10
2022-09-13T03:54:45.528Z,61.10
2022-09-13T03:57:15.540Z,61.10
2022-09-13T03:59:48.131Z,61.10
2022-09-13T04:02:17.281Z,61.10
2022-09-13T04:04:46.976Z,61.10
2022-09-13T04:07:21.113Z,61.10
2022-09-13T04:09:49.652Z,61.10
2022-09-13T04:12:19.220Z,61.10
2022-09-13T04:14:47.718Z,61.10
2022-09-13T04:17:16.020Z,61.10
2022-09-13T04:19:47.134Z,61.10
2022-09-13T04:22:15.812Z,61.10
2022-09-13T04:24:45.262Z,61.10
2022-09-13T04:27:13.496Z,61.10
2022-09-13T04:29:41.577Z,61.10
2022-09-13T04:32:10.962Z,61.10
2022-09-13T04:34:39.050Z,61.10
2022-09-13T04:37:07.139Z,61.10
2022-09-13T04:39:35.221Z,61.00
2022-09-13T04:42:04.964Z,61.10
2022-09-13T04:44:33.547Z,60.70
2022-09-13T04:47:01.627Z,60.80
2022-09-13T04:49:29.732Z,61.00
2022-09-13T04:51:57.828Z,61.00
2022-09-13T04:54:26.425Z,60.60
2022-09-13T04:56:55.143Z,61.20
2022-09-13T04:59:24.693Z,61.30
2022-09-13T05:01:52.871Z,61.40
2022-09-13T05:04:21.036Z,61.40
2022-09-13T05:06:49.480Z,61.50
2022-09-13T05:09:18.119Z,61.60
2022-09-13T05:11:46.191Z,61.70
2022-09-13T05:14:14.481Z,61.80
2022-09-13T05:16:44.351Z,62.00
2022-09-13T05:19:13.643Z,62.00
2022-09-13T05:21:41.704Z,62.10
2022-09-13T05:24:10.017Z,62.10
2022-09-13T05:26:38.135Z,62.20
2022-09-13T05:29:06.820Z,62.20
2022-09-13T05:31:37.131Z,62.20
2022-09-13T05:34:10.451Z,62.20
2022-09-13T05:36:38.973Z,62.30
2022-09-13T05:41:57.096Z,62.20
2022-09-13T05:44:25.221Z,61.50
2022-09-13T05:46:53.297Z,61.50
2022-09-13T05:49:22.721Z,61.60
2022-09-13T05:51:50.781Z,61.50
2022-09-13T05:54:19.294Z,61.30
2022-09-13T05:56:47.483Z,61.40
2022-09-13T05:59:15.731Z,61.40
2022-09-13T06:01:43.838Z,61.70
2022-09-13T06:04:12.889Z,61.70
2022-09-13T06:06:42.529Z,61.70
2022-09-13T06:09:12.224Z,61.80
2022-09-13T06:11:40.546Z,62.10
2022-09-13T06:14:08.818Z,62.10
2022-09-13T06:16:37.018Z,62.10
2022-09-13T06:19:05.283Z,62.10
2022-09-13T06:21:33.378Z,62.10
2022-09-13T06:24:03.935Z,62.10
2022-09-13T06:26:32.577Z,62.10
2022-09-13T06:29:00.756Z,62.10
2022-09-13T06:31:29.562Z,62.10
2022-09-13T06:33:59.858Z,62.10
2022-09-13T06:36:28.247Z,62.10
2022-09-13T06:38:57.023Z,62.10
2022-09-13T06:41:27.415Z,62.10
2022-09-13T06:43:57.486Z,62.20
2022-09-13T06:46:26.231Z,62.10
2022-09-13T06:48:54.602Z,62.10
2022-09-13T06:51:24.711Z,62.20
2022-09-13T06:53:56.537Z,62.20
2022-09-13T06:56:27.893Z,62.30
2022-09-13T06:58:58.708Z,62.50
2022-09-13T07:01:29.231Z,62.60
2022-09-13T07:04:00.655Z,62.80
2022-09-13T07:06:30.944Z,62.70
2022-09-13T07:09:01.545Z,62.80
2022-09-13T07:11:35.399Z,62.70
2022-09-13T07:14:03.540Z,62.70
2022-09-13T07:16:33.148Z,62.70
2022-09-13T07:19:02.507Z,62.80
2022-09-13T07:21:31.003Z,62.60
2022-09-13T07:23:59.291Z,62.60
2022-09-13T07:26:29.064Z,62.60
2022-09-13T07:29:00.445Z,62.50
2022-09-13T07:31:31.186Z,62.60
2022-09-13T07:34:01.116Z,62.70
2022-09-13T07:36:30.647Z,62.50
2022-09-13T07:38:59.406Z,62.70
2022-09-13T07:41:29.127Z,62.60
2022-09-13T07:43:59.302Z,62.70
2022-09-13T07:46:32.311Z,62.70
2022-09-13T07:49:02.236Z,62.60
2022-09-13T07:51:32.135Z,62.70
2022-09-13T07:54:01.939Z,62.70
2022-09-13T07:56:31.639Z,62.80
2022-09-13T07:59:02.721Z,62.70
2022-09-13T08:01:35.161Z,62.80
2022-09-13T08:04:05.606Z,63.10
2022-09-13T08:06:35.063Z,62.30
2022-09-13T08:09:03.541Z,65.20
2022-09-13T08:11:34.127Z,66.20
2022-09-13T08:14:04.951Z,67.00
2022-09-13T08:16:33.904Z,68.30
2022-09-13T08:19:03.841Z,69.10
2022-09-13T08:21:34.956Z,70.80
2022-09-13T08:24:03.793Z,71.40
2022-09-13T08:26:33.735Z,71.60
2022-09-13T08:29:05.777Z,72.40
2022-09-13T08:31:34.850Z,73.20
2022-09-13T08:34:03.217Z,73.80
2022-09-13T08:36:31.734Z,73.80
2022-09-13T08:39:02.047Z,74.50
2022-09-13T08:42:00.497Z,73.60
2022-09-13T08:44:32.031Z,73.40
2022-09-13T08:47:15.785Z,72.30
2022-09-13T08:49:47.764Z,71.80
2022-09-13T08:52:29.454Z,72.50
2022-09-13T08:54:58.567Z,72.10
2022-09-13T08:57:33.169Z,73.00
2022-09-13T09:00:25.864Z,72.80
2022-09-13T09:03:03.686Z,72.60
2022-09-13T09:05:33.777Z,72.20
2022-09-13T09:08:07.511Z,72.00
2022-09-13T09:10:42.515Z,71.40
2022-09-13T09:13:22.629Z,71.00
2022-09-13T09:15:56.514Z,71.10
2022-09-13T09:18:28.665Z,70.40
2022-09-13T09:21:00.077Z,70.00
2022-09-13T09:23:32.768Z,70.20
2022-09-13T09:26:15.106Z,70.20
2022-09-13T09:28:43.315Z,70.20
2022-09-13T09:31:17.754Z,70.50
2022-09-13T09:34:01.503Z,70.40
2022-09-13T09:36:39.522Z,70.60
2022-09-13T09:39:11.216Z,70.10
2022-09-13T09:41:39.401Z,69.40
2022-09-13T09:44:18.737Z,68.40
2022-09-13T09:46:51.086Z,69.00
2022-09-13T09:49:41.472Z,69.20
2022-09-13T09:52:14.642Z,69.10
2022-09-13T09:54:42.750Z,69.00
2022-09-13T09:57:11.510Z,68.70
2022-09-13T09:59:39.887Z,68.10
2022-09-13T10:02:18.474Z,68.20
2022-09-13T10:04:57.382Z,67.70
2022-09-13T10:07:33.260Z,67.30
2022-09-13T10:10:05.867Z,67.10
2022-09-13T10:12:36.861Z,66.50
2022-09-13T10:15:15.427Z,65.90
2022-09-13T10:17:46.712Z,66.10
2022-09-13T10:20:26.656Z,65.60
2022-09-13T10:23:20.740Z,65.60
2022-09-13T10:26:05.855Z,65.50
2022-09-13T10:28:36.730Z,64.60
2022-09-13T10:31:12.837Z,64.60
2022-09-13T10:33:56.070Z,64.90
2022-09-13T10:36:51.010Z,64.60
2022-09-13T10:39:20.370Z,64.90
2022-09-13T10:41:54.122Z,63.50
2022-09-13T10:44:28.066Z,61.90
2022-09-13T10:46:56.519Z,63.70
2022-09-13T10:49:40.474Z,63.60
2022-09-13T10:52:27.035Z,64.30
2022-09-13T10:54:55.745Z,64.20
2022-09-13T10:57:33.751Z,63.90
2022-09-13T11:00:02.084Z,64.10
2022-09-13T11:03:00.945Z,63.90
2022-09-13T11:05:38.002Z,64.50
2022-09-13T11:08:34.374Z,64.10
2022-09-13T11:11:22.706Z,63.30
2022-09-13T11:14:02.305Z,62.20
2022-09-13T11:16:46.104Z,61.40
2022-09-13T11:19:50.179Z,60.80
2022-09-13T11:22:59.083Z,59.70
2022-09-13T11:25:35.149Z,59.10
2022-09-13T11:28:13.187Z,59.00
2022-09-13T11:31:00.703Z,59.00
2022-09-13T11:33:37.510Z,58.00
2022-09-13T11:36:42.063Z,56.60
2022-09-13T11:39:20.906Z,56.60
2022-09-13T11:42:05.643Z,55.70
2022-09-13T11:44:48.203Z,55.90
2022-09-13T11:47:26.818Z,55.80
2022-09-13T11:50:20.002Z,55.00
2022-09-13T11:52:58.927Z,54.70
2022-09-13T11:55:31.530Z,54.10
2022-09-13T11:58:04.206Z,52.60
2022-09-13T12:00:40.215Z,53.20
2022-09-13T12:03:24.657Z,51.50
2022-09-13T12:05:55.856Z,52.70
2022-09-13T12:08:27.589Z,52.30
2022-09-13T12:10:59.413Z,52.50
2022-09-13T12:13:30.059Z,51.80
2022-09-13T12:16:04.652Z,50.80
2022-09-13T12:18:37.552Z,51.10
2022-09-13T12:21:11.359Z,51.00
2022-09-13T12:23:44.740Z,51.20
2022-09-13T12:26:20.086Z,52.10
2022-09-13T12:28:52.887Z,52.60
2022-09-13T12:31:25.281Z,52.50
2022-09-13T12:33:55.927Z,52.70
2022-09-13T12:36:43.556Z,52.20
2022-09-13T12:39:33.930Z,52.10
2022-09-13T12:42:44.688Z,52.70
2022-09-13T12:45:27.921Z,53.40
2022-09-13T12:48:21.429Z,53.20
2022-09-13T12:51:17.088Z,52.90
2022-09-13T12:54:22.055Z,53.40
2022-09-13T12:57:02.698Z,54.10
2022-09-13T12:59:50.414Z,54.10
2022-09-13T13:02:31.741Z,55.00
2022-09-13T13:05:03.669Z,55.70
2022-09-13T13:07:36.765Z,55.80
2022-09-13T13:10:05.641Z,56.60
2022-09-13T13:12:35.511Z,56.60
2022-09-13T13:15:07.758Z,56.70
2022-09-13T13:17:38.327Z,56.20
2022-09-13T13:20:44.078Z,56.10
2022-09-13T13:23:24.802Z,56.00
2022-09-13T13:26:08.847Z,53.80
2022-09-13T13:29:15.684Z,53.60
2022-09-13T13:32:07.367Z,52.10
2022-09-13T13:34:40.499Z,53.90
2022-09-13T13:37:34.834Z,53.90
2022-09-13T13:40:26.796Z,55.00
2022-09-13T13:43:17.636Z,55.00
2022-09-13T13:45:58.703Z,55.00
2022-09-13T13:48:40.287Z,56.00
2022-09-13T13:51:29.107Z,55.10
2022-09-13T13:54:01.581Z,55.60
2022-09-13T13:56:48.885Z,56.20
2022-09-13T13:59:26.170Z,56.80
2022-09-13T14:01:59.474Z,56.70
2022-09-13T14:05:17.501Z,58.00
2022-09-13T14:10:46.263Z,58.10
2022-09-13T14:13:47.053Z,57.40
2022-09-13T14:16:37.260Z,57.40
2022-09-13T14:19:19.631Z,57.20
2022-09-13T14:22:07.106Z,57.50
2022-09-13T14:24:38.223Z,58.00
2022-09-13T14:27:09.541Z,58.40
2022-09-13T14:29:37.845Z,58.60
2022-09-13T14:32:10.706Z,58.10
2022-09-13T14:34:40.049Z,56.40
2022-09-13T14:37:19.381Z,57.80
2022-09-13T14:39:56.332Z,58.50
2022-09-13T14:42:24.913Z,58.50
2022-09-13T14:44:53.110Z,58.70
2022-09-13T14:47:29.105Z,57.10
2022-09-13T14:50:04.308Z,56.90
2022-09-13T14:52:36.575Z,56.80
2022-09-13T14:55:09.812Z,57.20
2022-09-13T14:57:40.314Z,57.50
2022-09-13T15:00:18.431Z,57.40
2022-09-13T15:02:50.641Z,58.40
2022-09-13T15:05:22.541Z,58.80
2022-09-13T15:07:52.015Z,59.00
2022-09-13T15:10:26.935Z,59.20
2022-09-13T15:13:03.075Z,59.60
2022-09-13T15:15:36.813Z,59.70
2022-09-13T15:18:07.593Z,60.00
2022-09-13T15:20:51.755Z,60.10
2022-09-13T15:23:25.984Z,60.00
2022-09-13T15:25:56.595Z,59.80
2022-09-13T15:28:27.688Z,59.90
2022-09-13T15:30:57.291Z,59.80
2022-09-13T15:33:28.924Z,59.60
2022-09-13T15:36:29.930Z,59.60
2022-09-13T15:39:03.445Z,59.60
2022-09-13T15:41:33.630Z,59.70
2022-09-13T15:44:02.770Z,59.60
2022-09-13T15:46:31.526Z,59.90
2022-09-13T15:49:02.482Z,60.00
2022-09-13T15:51:34.404Z,59.30
2022-09-13T15:54:13.649Z,59.90
2022-09-13T15:56:44.615Z,60.10
2022-09-13T15:59:15.177Z,60.10
2022-09-13T16:01:43.641Z,60.30
2022-09-13T16:04:12.112Z,60.40
2022-09-13T16:06:40.677Z,60.30
2022-09-13T16:09:18.127Z,60.40
2022-09-13T16:11:46.462Z,60.20
2022-09-13T16:14:14.664Z,60.50
2022-09-13T16:16:43.084Z,60.60
2022-09-13T16:19:16.267Z,60.60
2022-09-13T16:21:44.458Z,60.70
2022-09-13T16:24:14.159Z,60.80
2022-09-13T16:26:43.108Z,60.80
2022-09-13T16:29:12.322Z,60.80
2022-09-13T16:31:40.680Z,60.80
2022-09-13T16:34:09.352Z,61.00
2022-09-13T16:36:37.528Z,61.00
2022-09-13T16:39:05.946Z,61.10
2022-09-13T16:41:35.398Z,61.20
2022-09-13T16:44:05.068Z,61.30
2022-09-13T16:46:33.806Z,61.40
2022-09-13T16:49:01.995Z,61.50
2022-09-13T16:51:30.100Z,61.70
2022-09-13T16:53:58.321Z,61.80
2022-09-13T16:56:27.947Z,61.80
2022-09-13T16:58:57.898Z,61.90
2022-09-13T17:01:27.729Z,61.90
2022-09-13T17:03:56.942Z,62.00
2022-09-13T17:06:26.463Z,62.30
2022-09-13T17:08:56.561Z,62.60
2022-09-13T17:11:27.220Z,62.80
2022-09-13T17:13:57.248Z,63.00
2022-09-13T17:16:29.452Z,63.20
2022-09-13T17:18:59.191Z,63.00
2022-09-13T17:21:28.063Z,63.00
2022-09-13T17:23:56.902Z,63.10
2022-09-13T17:26:25.036Z,63.60
2022-09-13T17:28:53.646Z,63.60
2022-09-13T17:31:23.164Z,63.70
2022-09-13T17:33:53.177Z,65.30
2022-09-13T17:36:22.103Z,65.10
2022-09-13T17:38:50.173Z,65.00
2022-09-13T17:41:20.314Z,65.90
2022-09-13T17:43:48.822Z,66.20
2022-09-13T17:46:21.235Z,66.20
2022-09-13T17:48:52.025Z,66.40
2022-09-13T17:51:22.762Z,67.80
2022-09-13T17:53:54.290Z,65.70
2022-09-13T17:56:29.554Z,64.90
2022-09-13T17:58:58.514Z,64.80
2022-09-13T18:01:29.266Z,65.60
2022-09-13T18:03:58.721Z,65.60
2022-09-13T18:06:26.956Z,65.70
2022-09-13T18:08:55.453Z,66.30
2022-09-13T18:11:23.743Z,66.10
2022-09-13T18:13:52.732Z,65.70
2022-09-13T18:16:22.773Z,65.40
2022-09-13T18:18:52.010Z,65.00
2022-09-13T18:21:23.829Z,64.80
2022-09-13T18:23:53.531Z,64.40
2022-09-13T18:26:22.977Z,64.30
2022-09-13T18:28:56.148Z,64.30
2022-09-13T18:31:25.653Z,64.20
2022-09-13T18:33:58.430Z,64.20
2022-09-13T18:36:29.887Z,64.10
2022-09-13T18:38:58.720Z,64.10
2022-09-13T18:41:28.582Z,64.30
2022-09-13T18:43:58.554Z,64.50
2022-09-13T18:46:31.757Z,64.30
2022-09-13T18:49:00.503Z,64.30
2022-09-13T18:51:32.025Z,64.20
2022-09-13T18:54:01.057Z,63.60
2022-09-13T18:56:30.149Z,63.30
2022-09-13T18:59:02.820Z,63.00
2022-09-13T19:01:32.971Z,63.00
2022-09-13T19:04:05.416Z,63.00
2022-09-13T19:06:36.356Z,62.90
2022-09-13T19:09:06.379Z,62.90
2022-09-13T19:11:46.470Z,62.90
2022-09-13T19:14:15.825Z,62.80
2022-09-13T19:16:44.159Z,62.70
2022-09-13T19:19:12.434Z,62.80
2022-09-13T19:21:42.303Z,62.80
2022-09-13T19:24:20.147Z,62.80
2022-09-13T19:26:51.497Z,62.80
2022-09-13T19:29:21.550Z,62.80
2022-09-13T19:31:52.192Z,62.90
2022-09-13T19:34:22.122Z,62.90
2022-09-13T19:36:57.428Z,62.90
2022-09-13T19:39:29.706Z,62.90
2022-09-13T19:41:58.745Z,62.90
2022-09-13T19:44:26.896Z,62.90
2022-09-13T19:47:23.664Z,62.90
2022-09-13T19:49:43.312Z,62.90
2022-09-13T19:52:12.769Z,62.90
2022-09-13T19:54:40.902Z,63.00
2022-09-13T19:57:09.927Z,63.00
2022-09-13T19:59:38.018Z,63.00
2022-09-13T20:02:06.912Z,62.90
2022-09-13T20:04:35.161Z,62.90
2022-09-13T20:07:03.254Z,62.90
2022-09-13T20:09:33.582Z,63.10
2022-09-13T20:12:01.651Z,65.60
2022-09-13T20:14:29.888Z,65.70
2022-09-13T20:16:58.650Z,64.50
2022-09-13T20:19:46.385Z,63.80
2022-09-13T20:22:15.256Z,63.60
2022-09-13T20:24:44.721Z,63.50
2022-09-13T20:27:13.401Z,63.50
2022-09-13T20:29:41.868Z,63.50
2022-09-13T20:32:11.266Z,63.50
2022-09-13T20:34:41.809Z,63.50
2022-09-13T20:37:09.923Z,63.50
2022-09-13T20:39:37.988Z,63.60
2022-09-13T20:42:08.777Z,63.60
2022-09-13T20:44:37.085Z,63.60
2022-09-13T20:47:05.648Z,63.60
2022-09-13T20:49:33.862Z,63.70
2022-09-13T20:52:02.022Z,63.70
2022-09-13T20:54:30.057Z,63.80
2022-09-13T20:56:58.206Z,63.80
2022-09-13T20:59:27.944Z,63.80
2022-09-13T21:01:56.227Z,63.90
2022-09-13T21:04:24.444Z,63.90
2022-09-13T21:07:14.493Z,63.90
2022-09-13T21:09:43.348Z,64.00
2022-09-13T21:12:11.519Z,64.00
2022-09-13T21:14:40.932Z,64.00
2022-09-13T21:17:09.286Z,64.00
2022-09-13T21:19:37.375Z,64.00
2022-09-13T21:22:05.683Z,64.00
2022-09-13T21:24:33.751Z,64.10
2022-09-13T21:27:01.917Z,64.10
2022-09-13T21:29:30.033Z,64.20
2022-09-13T21:31:59.517Z,64.20
2022-09-13T21:34:30.420Z,64.40
2022-09-13T21:36:58.494Z,64.50
2022-09-13T21:39:26.768Z,64.90
2022-09-13T21:41:54.853Z,65.30
2022-09-13T21:44:23.008Z,65.50
2022-09-13T21:46:52.521Z,65.80
2022-09-13T21:49:22.011Z,66.10
2022-09-13T21:51:53.413Z,66.30
2022-09-13T21:54:21.914Z,66.50
2022-09-13T21:56:51.812Z,66.60
2022-09-13T21:59:21.190Z,66.60
2022-09-13T22:01:51.405Z,66.80
2022-09-13T22:04:22.636Z,66.80
2022-09-13T22:06:53.580Z,66.80
2022-09-13T22:09:23.154Z,66.90
2022-09-13T22:11:51.510Z,67.00
2022-09-13T22:14:21.913Z,66.90
2022-09-13T22:16:52.388Z,67.00
2022-09-13T22:19:25.529Z,67.00
2022-09-13T22:21:56.393Z,67.00
2022-09-13T22:24:27.398Z,67.00
2022-09-13T22:26:58.131Z,67.10
2022-09-13T22:29:26.546Z,67.20
2022-09-13T22:31:54.661Z,67.20
2022-09-13T22:34:26.134Z,67.10
2022-09-13T22:36:55.496Z,66.90
2022-09-13T22:39:24.081Z,67.00
2022-09-13T22:41:52.274Z,67.00
2022-09-13T22:44:20.409Z,67.10
2022-09-13T22:46:48.878Z,67.20
2022-09-13T22:49:18.304Z,67.30
2022-09-13T22:51:49.099Z,67.20
2022-09-13T22:54:18.264Z,67.10
2022-09-13T22:56:46.899Z,67.20
2022-09-13T22:59:17.051Z,67.30
2022-09-13T23:01:45.874Z,67.40
2022-09-13T23:04:14.683Z,67.50
2022-09-13T23:06:44.245Z,67.50
2022-09-13T23:09:16.768Z,67.50
2022-09-13T23:11:45.633Z,67.50
2022-09-13T23:14:15.652Z,67.50
2022-09-13T23:16:46.138Z,67.50
2022-09-13T23:19:14.954Z,67.60
2022-09-13T23:21:43.664Z,67.60
2022-09-13T23:24:15.673Z,67.70
2022-09-13T23:26:47.151Z,67.80
2022-09-13T23:29:17.314Z,67.80
2022-09-13T23:31:46.921Z,67.90
2022-09-13T23:34:15.377Z,68.00
2022-09-13T23:36:44.725Z,67.90
2022-09-13T23:39:17.407Z,68.10
2022-09-13T23:41:46.537Z,67.90
2022-09-13T23:44:15.098Z,68.00
2022-09-13T23:46:43.453Z,68.10
2022-09-13T23:49:14.099Z,67.90
2022-09-13T23:51:42.476Z,67.90
2022-09-13T23:54:11.287Z,68.00
2022-09-13T23:56:41.021Z,67.90
2022-09-13T23:59:09.343Z,68.00
